createdAt,value
2023-07-24T00:01:51.164Z,94.20
2023-07-24T00:05:32.880Z,94.20
2023-07-24T00:09:14.572Z,94.20
2023-07-24T00:12:56.273Z,94.30
2023-07-24T00:16:38.178Z,94.30
2023-07-24T00:20:19.916Z,94.30
2023-07-24T00:24:01.610Z,94.30
2023-07-24T00:27:43.342Z,94.30
2023-07-24T00:31:25.124Z,94.30
2023-07-24T00:35:07.221Z,94.30
2023-07-24T00:38:48.903Z,94.30
2023-07-24T00:42:30.700Z,94.30
2023-07-24T00:46:12.744Z,94.30
2023-07-24T00:49:55.367Z,94.30
2023-07-24T00:53:37.099Z,94.30
2023-07-24T00:57:19.132Z,94.30
2023-07-24T01:01:00.869Z,94.30
2023-07-24T01:04:42.652Z,94.30
2023-07-24T01:08:24.609Z,94.30
2023-07-24T01:12:11.350Z,94.30
2023-07-24T01:15:53.048Z,94.30
2023-07-24T01:19:34.770Z,94.30
2023-07-24T01:23:16.455Z,94.30
2023-07-24T01:26:58.535Z,94.30
2023-07-24T01:30:40.255Z,94.30
2023-07-24T01:34:21.947Z,94.30
2023-07-24T01:38:03.818Z,94.30
2023-07-24T01:41:45.670Z,94.30
2023-07-24T01:45:27.452Z,94.30
2023-07-24T01:49:09.134Z,94.30
2023-07-24T01:52:50.823Z,94.30
2023-07-24T01:56:41.470Z,94.30
2023-07-24T02:00:23.140Z,94.30
2023-07-24T02:04:04.917Z,94.30
2023-07-24T02:07:46.621Z,94.30
2023-07-24T02:11:28.371Z,94.40
2023-07-24T02:15:10.298Z,94.40
2023-07-24T02:18:51.983Z,94.30
2023-07-24T02:22:33.727Z,94.30
2023-07-24T02:26:15.480Z,94.40
2023-07-24T02:29:57.328Z,94.40
2023-07-24T02:33:39.024Z,94.40
2023-07-24T02:37:20.817Z,94.40
2023-07-24T02:41:02.521Z,94.40
2023-07-24T02:44:44.280Z,94.40
2023-07-24T02:48:26.022Z,94.40
2023-07-24T02:52:07.726Z,94.40
2023-07-24T02:55:49.463Z,94.40
2023-07-24T02:59:32.585Z,94.40
2023-07-24T03:03:14.555Z,94.50
2023-07-24T03:06:56.285Z,94.40
2023-07-24T03:10:40.974Z,94.40
2023-07-24T03:14:22.667Z,94.50
2023-07-24T03:18:04.401Z,94.50
2023-07-24T03:21:46.126Z,94.50
2023-07-24T03:25:27.815Z,94.40
2023-07-24T03:29:09.523Z,94.40
2023-07-24T03:32:51.294Z,94.30
2023-07-24T03:36:33.070Z,94.30
2023-07-24T03:40:15.079Z,94.30
2023-07-24T03:43:56.820Z,94.30
2023-07-24T03:47:40.601Z,94.30
2023-07-24T03:51:23.927Z,94.30
2023-07-24T03:55:05.908Z,94.20
2023-07-24T03:58:47.649Z,94.20
2023-07-24T04:02:29.391Z,94.20
2023-07-24T04:06:11.289Z,94.20
2023-07-24T04:09:52.985Z,94.20
2023-07-24T04:13:34.665Z,94.20
2023-07-24T04:17:16.867Z,94.20
2023-07-24T04:20:58.688Z,94.10
2023-07-24T04:24:40.459Z,94.10
2023-07-24T04:28:22.196Z,94.20
2023-07-24T04:32:04.079Z,94.20
2023-07-24T04:35:48.482Z,94.30
2023-07-24T04:39:30.198Z,94.30
2023-07-24T04:43:11.901Z,94.40
2023-07-24T04:46:53.635Z,94.40
2023-07-24T04:50:35.420Z,94.50
2023-07-24T04:54:17.440Z,94.50
2023-07-24T04:57:59.180Z,94.40
2023-07-24T05:01:41.000Z,94.50
2023-07-24T05:05:22.712Z,94.50
2023-07-24T05:09:04.430Z,94.50
2023-07-24T05:12:46.137Z,94.60
2023-07-24T05:16:28.020Z,94.60
2023-07-24T05:20:10.284Z,94.60
2023-07-24T05:23:51.986Z,94.60
2023-07-24T05:27:33.677Z,94.60
2023-07-24T05:31:15.440Z,94.60
2023-07-24T05:34:57.183Z,94.60
2023-07-24T05:38:38.898Z,94.60
2023-07-24T05:42:21.166Z,94.90
2023-07-24T05:46:02.918Z,94.70
2023-07-24T05:49:44.627Z,94.70
2023-07-24T05:53:26.434Z,94.80
2023-07-24T05:57:08.306Z,94.80
2023-07-24T06:00:50.344Z,94.80
2023-07-24T06:04:32.461Z,94.80
2023-07-24T06:08:14.276Z,94.90
2023-07-24T06:11:55.976Z,94.90
2023-07-24T06:15:37.753Z,94.90
2023-07-24T06:19:19.499Z,94.90
2023-07-24T06:23:01.253Z,94.90
2023-07-24T06:26:42.955Z,94.90
2023-07-24T06:30:24.681Z,94.90
2023-07-24T06:34:06.396Z,94.90
2023-07-24T06:37:48.114Z,94.90
2023-07-24T06:41:29.797Z,94.90
2023-07-24T06:45:11.699Z,94.80
2023-07-24T06:48:53.425Z,94.80
2023-07-24T06:52:35.268Z,94.90
2023-07-24T06:56:17.043Z,95.00
2023-07-24T06:59:58.813Z,95.00
2023-07-24T07:03:40.532Z,95.00
2023-07-24T07:07:22.347Z,95.00
2023-07-24T07:11:04.203Z,94.90
2023-07-24T07:14:45.935Z,94.90
2023-07-24T07:18:27.636Z,93.90
2023-07-24T07:22:09.329Z,93.70
2023-07-24T07:25:52.368Z,94.20
2023-07-24T07:29:34.171Z,94.30
2023-07-24T07:33:16.049Z,94.40
2023-07-24T07:36:57.766Z,94.20
2023-07-24T07:40:40.470Z,94.00
2023-07-24T07:44:22.263Z,92.70
2023-07-24T07:48:04.156Z,92.60
2023-07-24T07:51:46.086Z,92.60
2023-07-24T07:55:27.884Z,92.20
2023-07-24T07:59:09.676Z,92.70
2023-07-24T08:02:51.418Z,92.70
2023-07-24T08:06:33.357Z,92.80
2023-07-24T08:10:18.411Z,92.80
2023-07-24T08:14:00.150Z,92.50
2023-07-24T08:17:41.958Z,92.50
2023-07-24T08:21:23.759Z,92.80
2023-07-24T08:25:05.660Z,92.90
2023-07-24T08:28:47.374Z,93.10
2023-07-24T08:32:29.494Z,93.20
2023-07-24T08:36:12.760Z,93.20
2023-07-24T08:39:54.460Z,93.30
2023-07-24T08:43:36.929Z,93.60
2023-07-24T08:47:18.885Z,93.50
2023-07-24T08:51:01.354Z,93.50
2023-07-24T08:54:43.614Z,93.60
2023-07-24T08:58:25.315Z,94.10
